Time;durP1;ratioP1;P1;durP2;ratioP2;P2;SDS_P1;SDS_P2;PMS_P1;PMS_P2;Temp;Humidity;BMP_temperature;BMP_pressure;BME280_temperature;BME280_humidity;BME280_pressure;Samples;Min_cycle;Max_cycle;Signal;HPM_P1;HPM_P2
2023/09/03 00:02:17;;;;;;;;;;;;;;;;;;4865131;29;19975;-82
2023/09/03 00:04:42;;;;;;;;;;;;;;;;;;4869782;29;19919;-82
2023/09/03 00:07:07;;;;;;;;;;;;;;;;;;4850763;29;19916;-81
2023/09/03 00:09:34;;;;;;;;;;;;;;;;;;4851115;29;19971;-81
2023/09/03 00:12:00;;;;;;;;;;;;;;;;;;4850387;29;19924;-81
2023/09/03 00:14:25;;;;;;;;;;;;;;;;;;4851626;29;19934;-82
2023/09/03 00:16:50;;;;;;;;;;;;;;;;;;4852167;29;19923;-81
2023/09/03 00:19:16;;;;;;;;;;;;;;;;;;4855064;29;20002;-82
2023/09/03 00:21:41;;;;;;;;;;;;;;;;;;4841809;29;20008;-82
2023/09/03 00:24:06;;;;;;;;;;;;;;;;;;4837821;29;19927;-82
2023/09/03 00:26:31;;;;;;;;;;;;;;;;;;4871799;29;19915;-81
2023/09/03 00:28:57;;;;;;;;;;;;;;;;;;4831026;29;19936;-80
2023/09/03 00:31:25;;;;;;;;;;;;;;;;;;4857382;29;20591;-83
2023/09/03 00:33:50;;;;;;;;;;;;;;;;;;4860927;29;19980;-81
2023/09/03 00:36:18;;;;;;;;;;;;;;;;;;4851713;29;19947;-81
2023/09/03 00:38:47;;;;;;;;;;;;;;;;;;4851943;29;19927;-81
2023/09/03 00:41:12;;;;;;;;;;;;;;;;;;4848880;29;20451;-81
2023/09/03 00:43:40;;;;;;;;;;;;;;;;;;4872109;29;19919;-81
2023/09/03 00:46:08;;;;;;;;;;;;;;;;;;4870643;29;19947;-81
2023/09/03 00:48:33;;;;;;;;;;;;;;;;;;4851747;29;19925;-81
2023/09/03 00:51:00;;;;;;;;;;;;;;;;;;4837625;29;19920;-82
2023/09/03 00:53:25;;;;;;;;;;;;;;;;;;4831422;29;19924;-81
2023/09/03 00:55:50;;;;;;;;;;;;;;;;;;4840468;29;19915;-82
2023/09/03 00:58:15;;;;;;;;;;;;;;;;;;4852150;29;19925;-82
2023/09/03 01:00:44;;;;;;;;;;;;;;;;;;4854536;29;19924;-82
2023/09/03 01:03:09;;;;;;;;;;;;;;;;;;4857434;29;19931;-82
2023/09/03 01:05:35;;;;;;;;;;;;;;;;;;4867865;29;22847;-83
2023/09/03 01:08:00;;;;;;;;;;;;;;;;;;4851553;29;19987;-82
2023/09/03 01:10:27;;;;;;;;;;;;;;;;;;4845776;29;19924;-82
2023/09/03 01:12:55;;;;;;;;;;;;;;;;;;4843400;29;19931;-82
2023/09/03 01:15:23;;;;;;;;;;;;;;;;;;4872065;29;19923;-83
2023/09/03 01:17:51;;;;;;;;;;;;;;;;;;4851445;29;19954;-83
2023/09/03 01:20:26;;;;;;;;;;;;;;;;;;4876411;29;19919;-83
2023/09/03 01:23:02;;;;;;;;;;;;;;;;;;4853405;29;19919;-83
2023/09/03 01:25:31;;;;;;;;;;;;;;;;;;4848917;29;19925;-82
2023/09/03 01:28:15;;;;;;;;;;;;;;;;;;4876103;29;19923;-82
2023/09/03 01:30:40;;;;;;;;;;;;;;;;;;4879618;29;19923;-82
2023/09/03 01:33:05;;;;;;;;;;;;;;;;;;4851044;29;19920;-82
2023/09/03 01:35:38;;;;;;;;;;;;;;;;;;4850817;29;20010;-82
2023/09/03 01:38:07;;;;;;;;;;;;;;;;;;4853372;29;19915;-81
2023/09/03 01:40:32;;;;;;;;;;;;;;;;;;4841121;29;19955;-82
2023/09/03 01:42:57;;;;;;;;;;;;;;;;;;4851974;29;20980;-81
2023/09/03 01:45:23;;;;;;;;;;;;;;;;;;4834767;29;20022;-81
2023/09/03 01:47:50;;;;;;;;;;;;;;;;;;4845387;29;19994;-81
2023/09/03 01:50:17;;;;;;;;;;;;;;;;;;4869512;29;19926;-82
2023/09/03 01:52:45;;;;;;;;;;;;;;;;;;4848724;29;19924;-82
2023/09/03 01:55:10;;;;;;;;;;;;;;;;;;4871252;29;20038;-81
2023/09/03 01:57:39;;;;;;;;;;;;;;;;;;4850395;29;20060;-81
2023/09/03 02:00:05;;;;;;;;;;;;;;;;;;4853121;29;19931;-82
2023/09/03 02:02:30;;;;;;;;;;;;;;;;;;4843357;29;20384;-82
2023/09/03 02:04:58;;;;;;;;;;;;;;;;;;4806239;29;19935;-82
2023/09/03 02:07:24;;;;;;;;;;;;;;;;;;4849520;29;20359;-82
2023/09/03 02:09:49;;;;;;;;;;;;;;;;;;4840389;29;19920;-82
2023/09/03 02:12:23;;;;;;;;;;;;;;;;;;4836702;29;19952;-81
2023/09/03 02:14:52;;;;;;;;;;;;;;;;;;4847929;29;19923;-82
2023/09/03 02:17:20;;;;;;;;;;;;;;;;;;4854937;29;20347;-82
2023/09/03 02:19:49;;;;;;;;;;;;;;;;;;4840279;29;20035;-82
2023/09/03 02:22:14;;;;;;;;;;;;;;;;;;4859031;29;19923;-82
2023/09/03 02:24:42;;;;;;;;;;;;;;;;;;4840455;29;20202;-82
2023/09/03 02:27:08;;;;;;;;;;;;;;;;;;4848803;29;20410;-82
2023/09/03 02:29:33;;;;;;;;;;;;;;;;;;4852600;29;19919;-82
2023/09/03 02:31:58;;;;;;;;;;;;;;;;;;4869355;29;19924;-82
2023/09/03 02:34:24;;;;;;;;;;;;;;;;;;4845097;29;19942;-82
2023/09/03 02:36:52;;;;;;;;;;;;;;;;;;4849472;29;19951;-82
2023/09/03 02:39:17;;;;;;;;;;;;;;;;;;4852137;29;19938;-82
2023/09/03 02:41:43;;;;;;;;;;;;;;;;;;4855254;29;20435;-82
2023/09/03 02:44:09;;;;;;;;;;;;;;;;;;4842007;29;20376;-82
2023/09/03 02:46:37;;;;;;;;;;;;;;;;;;4841850;29;19927;-81
2023/09/03 02:49:02;;;;;;;;;;;;;;;;;;4844004;29;19919;-82
2023/09/03 02:51:28;;;;;;;;;;;;;;;;;;4840179;29;19947;-82
2023/09/03 02:53:54;;;;;;;;;;;;;;;;;;4853545;29;19930;-81
2023/09/03 02:56:21;;;;;;;;;;;;;;;;;;4871887;29;19919;-82
2023/09/03 02:58:47;;;;;;;;;;;;;;;;;;4858463;29;19927;-82
2023/09/03 03:01:13;;;;;;;;;;;;;;;;;;4872562;29;19919;-82
2023/09/03 03:03:38;;;;;;;;;;;;;;;;;;4838151;29;19924;-82
2023/09/03 03:06:06;;;;;;;;;;;;;;;;;;4846515;29;19975;-82
2023/09/03 03:08:32;;;;;;;;;;;;;;;;;;4840987;29;19916;-82
2023/09/03 03:11:07;;;;;;;;;;;;;;;;;;4849024;29;19919;-81
2023/09/03 03:13:32;;;;;;;;;;;;;;;;;;4833842;29;19924;-81
2023/09/03 03:16:05;;;;;;;;;;;;;;;;;;4868809;29;19915;-81
2023/09/03 03:18:30;;;;;;;;;;;;;;;;;;4861704;29;19919;-82
2023/09/03 03:21:08;;;;;;;;;;;;;;;;;;4843994;29;20388;-81
2023/09/03 03:23:34;;;;;;;;;;;;;;;;;;4840571;29;19919;-82
2023/09/03 03:26:03;;;;;;;;;;;;;;;;;;4862599;29;20283;-82
2023/09/03 03:28:29;;;;;;;;;;;;;;;;;;4875336;29;19951;-82
2023/09/03 03:30:55;;;;;;;;;;;;;;;;;;4854584;29;20624;-82
2023/09/03 03:33:21;;;;;;;;;;;;;;;;;;4862649;29;19930;-83
2023/09/03 03:35:46;;;;;;;;;;;;;;;;;;4857645;29;19942;-82
2023/09/03 03:38:11;;;;;;;;;;;;;;;;;;4862346;29;20014;-82
2023/09/03 03:40:37;;;;;;;;;;;;;;;;;;4869563;29;19920;-82
2023/09/03 03:43:02;;;;;;;;;;;;;;;;;;4859080;29;19920;-82
2023/09/03 03:45:32;;;;;;;;;;;;;;;;;;4859414;29;20320;-82
2023/09/03 03:47:57;;;;;;;;;;;;;;;;;;4851743;29;19925;-82
2023/09/03 03:50:23;;;;;;;;;;;;;;;;;;4852871;29;19920;-83
2023/09/03 03:52:48;;;;;;;;;;;;;;;;;;4863115;29;19923;-82
2023/09/03 03:55:13;;;;;;;;;;;;;;;;;;4854799;29;19975;-83
2023/09/03 03:57:40;;;;;;;;;;;;;;;;;;4869933;29;19927;-82
2023/09/03 04:00:06;;;;;;;;;;;;;;;;;;4843903;29;19922;-83
2023/09/03 04:02:32;;;;;;;;;;;;;;;;;;4853758;29;19926;-83
2023/09/03 04:05:00;;;;;;;;;;;;;;;;;;4867316;29;19923;-83
2023/09/03 04:07:25;;;;;;;;;;;;;;;;;;4855572;29;19919;-83
2023/09/03 04:09:50;;;;;;;;;;;;;;;;;;4852817;29;20384;-83
2023/09/03 04:12:16;;;;;;;;;;;;;;;;;;4831412;29;20136;-83
2023/09/03 04:14:41;;;;;;;;;;;;;;;;;;4836878;29;19923;-83
2023/09/03 04:17:06;;;;;;;;;;;;;;;;;;4849680;29;19919;-83
2023/09/03 04:19:31;;;;;;;;;;;;;;;;;;4849557;29;20026;-83
2023/09/03 04:21:57;;;;;;;;;;;;;;;;;;4882425;29;19975;-82
2023/09/03 04:24:22;;;;;;;;;;;;;;;;;;4842126;29;19916;-81
2023/09/03 04:26:47;;;;;;;;;;;;;;;;;;4874291;29;20055;-81
2023/09/03 04:29:14;;;;;;;;;;;;;;;;;;4871842;29;20603;-84
2023/09/03 04:31:40;;;;;;;;;;;;;;;;;;4850793;29;20391;-82
2023/09/03 04:34:06;;;;;;;;;;;;;;;;;;4853155;29;19923;-83
2023/09/03 04:36:33;;;;;;;;;;;;;;;;;;4870914;29;20078;-81
2023/09/03 04:39:03;;;;;;;;;;;;;;;;;;4840300;29;20354;-82
2023/09/03 04:41:28;;;;;;;;;;;;;;;;;;4854012;29;19927;-82
2023/09/03 04:44:07;;;;;;;;;;;;;;;;;;4853668;29;19919;-82
2023/09/03 04:46:32;;;;;;;;;;;;;;;;;;4874209;29;19919;-82
2023/09/03 04:48:57;;;;;;;;;;;;;;;;;;4859668;29;19931;-82
2023/09/03 04:51:22;;;;;;;;;;;;;;;;;;4851736;29;20018;-82
2023/09/03 04:53:48;;;;;;;;;;;;;;;;;;4855928;29;19927;-82
2023/09/03 04:56:13;;;;;;;;;;;;;;;;;;4841141;29;19923;-82
2023/09/03 04:58:38;;;;;;;;;;;;;;;;;;4838114;29;20414;-81
2023/09/03 05:01:11;;;;;;;;;;;;;;;;;;4853521;29;20288;-82
2023/09/03 05:03:40;;;;;;;;;;;;;;;;;;4849652;29;20383;-82
2023/09/03 05:06:05;;;;;;;;;;;;;;;;;;4846781;29;19930;-82
2023/09/03 05:08:30;;;;;;;;;;;;;;;;;;4837143;29;19924;-82
2023/09/03 05:10:55;;;;;;;;;;;;;;;;;;4847541;29;25471;-82
2023/09/03 05:13:21;;;;;;;;;;;;;;;;;;4863760;29;20348;-82
2023/09/03 05:15:49;;;;;;;;;;;;;;;;;;4832430;29;19920;-83
2023/09/03 05:18:14;;;;;;;;;;;;;;;;;;4859330;29;19919;-82
2023/09/03 05:20:40;;;;;;;;;;;;;;;;;;4856670;29;20360;-82
2023/09/03 05:23:05;;;;;;;;;;;;;;;;;;4850277;29;19950;-83
2023/09/03 05:25:30;;;;;;;;;;;;;;;;;;4839744;29;19926;-82
2023/09/03 05:27:56;;;;;;;;;;;;;;;;;;4846199;29;19923;-82
2023/09/03 05:30:22;;;;;;;;;;;;;;;;;;4858125;29;19951;-83
2023/09/03 05:32:47;;;;;;;;;;;;;;;;;;4839682;29;20270;-82
2023/09/03 05:35:13;;;;;;;;;;;;;;;;;;4848257;29;19920;-82
2023/09/03 05:37:38;;;;;;;;;;;;;;;;;;4848947;29;19926;-83
2023/09/03 05:40:04;;;;;;;;;;;;;;;;;;4850081;29;19919;-83
2023/09/03 05:42:30;;;;;;;;;;;;;;;;;;4845695;29;20288;-82
2023/09/03 05:44:56;;;;;;;;;;;;;;;;;;4841983;29;19919;-83
2023/09/03 05:47:21;;;;;;;;;;;;;;;;;;4860440;29;19919;-82
2023/09/03 05:49:47;;;;;;;;;;;;;;;;;;4836839;29;19980;-83
2023/09/03 05:52:14;;;;;;;;;;;;;;;;;;4841797;29;19920;-83
2023/09/03 05:54:40;;;;;;;;;;;;;;;;;;4847778;29;19927;-82
2023/09/03 05:57:05;;;;;;;;;;;;;;;;;;4838318;29;19920;-83
2023/09/03 05:59:30;;;;;;;;;;;;;;;;;;4842849;29;19919;-83
2023/09/03 06:02:04;;;;;;;;;;;;;;;;;;4841506;29;20745;-83
2023/09/03 06:04:29;;;;;;;;;;;;;;;;;;4862995;29;19928;-82
2023/09/03 06:06:55;;;;;;;;;;;;;;;;;;4837368;29;19951;-83
2023/09/03 06:09:23;;;;;;;;;;;;;;;;;;4832292;29;20010;-82
2023/09/03 06:11:49;;;;;;;;;;;;;;;;;;4845387;29;20380;-79
2023/09/03 06:14:14;;;;;;;;;;;;;;;;;;4838255;29;19923;-80
2023/09/03 06:16:48;;;;;;;;;;;;;;;;;;4833046;29;19946;-79
2023/09/03 06:19:14;;;;;;;;;;;;;;;;;;4866977;29;19951;-80
2023/09/03 06:21:39;;;;;;;;;;;;;;;;;;4848090;29;19995;-80
2023/09/03 06:24:04;;;;;;;;;;;;;;;;;;4852202;29;20582;-79
2023/09/03 06:26:30;;;;;;;;;;;;;;;;;;4840225;29;20083;-79
2023/09/03 06:28:55;;;;;;;;;;;;;;;;;;4819259;29;20007;-79
2023/09/03 06:31:21;;;;;;;;;;;;;;;;;;4840684;29;19920;-81
2023/09/03 06:33:48;;;;;;;;;;;;;;;;;;4845094;29;19924;-79
2023/09/03 06:36:15;;;;;;;;;;;;;;;;;;4862516;29;19952;-80
2023/09/03 06:38:42;;;;;;;;;;;;;;;;;;4838337;29;19959;-80
2023/09/03 06:41:07;;;;;;;;;;;;;;;;;;4839296;29;19920;-81
2023/09/03 06:43:33;;;;;;;;;;;;;;;;;;4838517;29;19987;-80
2023/09/03 06:45:58;;;;;;;;;;;;;;;;;;4847884;29;19920;-81
2023/09/03 06:48:23;;;;;;;;;;;;;;;;;;4869370;29;19927;-80
2023/09/03 06:50:49;;;;;;;;;;;;;;;;;;4865562;29;19923;-79
2023/09/03 06:53:14;;;;;;;;;;;;;;;;;;4866027;29;19920;-81
2023/09/03 06:55:42;;;;;;;;;;;;;;;;;;4856667;29;20034;-80
2023/09/03 06:58:10;;;;;;;;;;;;;;;;;;4841908;29;19976;-80
2023/09/03 07:00:42;;;;;;;;;;;;;;;;;;4864329;29;20372;-79
2023/09/03 07:03:08;;;;;;;;;;;;;;;;;;4863493;29;19986;-82
2023/09/03 07:05:33;;;;;;;;;;;;;;;;;;4858227;29;19919;-80
2023/09/03 07:07:59;;;;;;;;;;;;;;;;;;4843678;29;19917;-81
2023/09/03 07:10:26;;;;;;;;;;;;;;;;;;4825994;29;19915;-80
2023/09/03 07:12:52;;;;;;;;;;;;;;;;;;4840627;29;20316;-80
2023/09/03 07:15:23;;;;;;;;;;;;;;;;;;4862424;29;19919;-81
2023/09/03 07:17:51;;;;;;;;;;;;;;;;;;4849490;29;20277;-80
2023/09/03 07:20:17;;;;;;;;;;;;;;;;;;4859701;29;19926;-82
2023/09/03 07:22:42;;;;;;;;;;;;;;;;;;4840739;29;19920;-81
2023/09/03 07:25:08;;;;;;;;;;;;;;;;;;4852260;29;20007;-81
2023/09/03 07:27:34;;;;;;;;;;;;;;;;;;4839599;29;19971;-81
2023/09/03 07:30:00;;;;;;;;;;;;;;;;;;4841963;29;20385;-81
2023/09/03 07:32:28;;;;;;;;;;;;;;;;;;4845207;29;19923;-80
2023/09/03 07:34:53;;;;;;;;;;;;;;;;;;4846125;29;20428;-80
2023/09/03 07:37:18;;;;;;;;;;;;;;;;;;4859321;29;19923;-80
2023/09/03 07:39:45;;;;;;;;;;;;;;;;;;4869886;29;19920;-79
2023/09/03 07:42:13;;;;;;;;;;;;;;;;;;4866972;29;20023;-80
2023/09/03 07:44:39;;;;;;;;;;;;;;;;;;4868535;29;20279;-81
2023/09/03 07:47:05;;;;;;;;;;;;;;;;;;4850176;29;19939;-81
2023/09/03 07:49:30;;;;;;;;;;;;;;;;;;4852508;29;20277;-79
2023/09/03 07:51:55;;;;;;;;;;;;;;;;;;4850077;29;19935;-80
2023/09/03 07:54:21;;;;;;;;;;;;;;;;;;4868492;29;19931;-79
2023/09/03 07:56:51;;;;;;;;;;;;;;;;;;4847451;29;20507;-78
2023/09/03 07:59:16;;;;;;;;;;;;;;;;;;4851813;29;20339;-79
2023/09/03 08:01:41;;;;;;;;;;;;;;;;;;4848714;29;19919;-80
2023/09/03 08:04:13;;;;;;;;;;;;;;;;;;4849738;29;19924;-78
2023/09/03 08:06:38;;;;;;;;;;;;;;;;;;4849070;29;19920;-80
2023/09/03 08:09:04;;;;;;;;;;;;;;;;;;4849241;29;19994;-79
2023/09/03 08:11:32;;;;;;;;;;;;;;;;;;4843008;29;19924;-79
2023/09/03 08:13:58;;;;;;;;;;;;;;;;;;4839221;29;20075;-79
2023/09/03 08:16:23;;;;;;;;;;;;;;;;;;4855216;29;20031;-79
2023/09/03 08:18:51;;;;;;;;;;;;;;;;;;4869181;29;20367;-79
2023/09/03 08:21:18;;;;;;;;;;;;;;;;;;4838566;29;19968;-79
2023/09/03 08:23:46;;;;;;;;;;;;;;;;;;4857603;29;20478;-79
2023/09/03 08:26:12;;;;;;;;;;;;;;;;;;4836129;29;19995;-80
2023/09/03 08:28:37;;;;;;;;;;;;;;;;;;4843323;29;20471;-80
2023/09/03 08:31:05;;;;;;;;;;;;;;;;;;4817218;29;19976;-79
2023/09/03 08:33:31;;;;;;;;;;;;;;;;;;4855746;29;19964;-79
2023/09/03 08:35:56;;;;;;;;;;;;;;;;;;4848685;29;19959;-79
2023/09/03 08:38:25;;;;;;;;;;;;;;;;;;4868010;29;20388;-80
2023/09/03 08:40:51;;;;;;;;;;;;;;;;;;4843335;29;20011;-80
2023/09/03 08:43:17;;;;;;;;;;;;;;;;;;4858331;29;20011;-82
2023/09/03 08:45:48;;;;;;;;;;;;;;;;;;4841551;29;19970;-81
2023/09/03 08:48:13;;;;;;;;;;;;;;;;;;4860159;29;20292;-82
2023/09/03 08:50:39;;;;;;;;;;;;;;;;;;4818173;29;19920;-82
2023/09/03 08:53:04;;;;;;;;;;;;;;;;;;4840265;29;19920;-82
2023/09/03 08:55:29;;;;;;;;;;;;;;;;;;4827870;29;19992;-82
2023/09/03 08:57:55;;;;;;;;;;;;;;;;;;4853014;29;19923;-82
2023/09/03 09:00:21;;;;;;;;;;;;;;;;;;4829333;29;19924;-82
2023/09/03 09:02:46;;;;;;;;;;;;;;;;;;4867459;29;19919;-82
2023/09/03 09:05:11;;;;;;;;;;;;;;;;;;4844439;29;19923;-82
2023/09/03 09:07:37;;;;;;;;;;;;;;;;;;4841511;29;19915;-82
2023/09/03 09:10:05;;;;;;;;;;;;;;;;;;4842714;29;20354;-82
2023/09/03 09:12:47;;;;;;;;;;;;;;;;;;4868024;29;20427;-82
2023/09/03 09:15:12;;;;;;;;;;;;;;;;;;4875485;29;20022;-83
2023/09/03 09:17:38;;;;;;;;;;;;;;;;;;4875723;29;19919;-82
2023/09/03 09:20:07;;;;;;;;;;;;;;;;;;4840284;29;19928;-82
2023/09/03 09:22:40;;;;;;;;;;;;;;;;;;4873723;29;20392;-83
2023/09/03 09:25:05;;;;;;;;;;;;;;;;;;4844316;29;20380;-82
2023/09/03 09:27:31;;;;;;;;;;;;;;;;;;4845244;29;19929;-82
2023/09/03 09:30:01;;;;;;;;;;;;;;;;;;4869959;29;19942;-82
2023/09/03 09:32:29;;;;;;;;;;;;;;;;;;4857540;29;20705;-82
2023/09/03 09:34:54;;;;;;;;;;;;;;;;;;4848163;29;19923;-83
2023/09/03 09:37:20;;;;;;;;;;;;;;;;;;4869709;29;20002;-85
2023/09/03 09:40:12;;;;;;;;;;;;;;;;;;4846883;29;19931;-84
2023/09/03 09:42:58;;;;;;;;;;;;;;;;;;4853747;29;19958;-85
2023/09/03 09:45:48;;;;;;;;;;;;;;;;;;4869871;29;19992;-85
2023/09/03 09:48:14;;;;;;;;;;;;;;;;;;4851666;29;19920;-85
2023/09/03 09:53:29;;;;;;;;;;;;;;;;;;4839911;29;19931;-86
2023/09/03 09:55:59;;;;;;;;;;;;;;;;;;4843095;29;19926;-86
2023/09/03 09:58:36;;;;;;;;;;;;;;;;;;4840867;29;19998;-87
2023/09/03 10:01:02;;;;;;;;;;;;;;;;;;4847398;29;20427;-86
2023/09/03 10:03:43;;;;;;;;;;;;;;;;;;4872403;29;20106;-87
2023/09/03 10:06:15;;;;;;;;;;;;;;;;;;4850412;29;19919;-85
2023/09/03 10:08:41;;;;;;;;;;;;;;;;;;4849943;29;19943;-86
2023/09/03 10:11:06;;;;;;;;;;;;;;;;;;4839975;29;19966;-84
2023/09/03 10:13:32;;;;;;;;;;;;;;;;;;4850639;29;20002;-84
2023/09/03 10:15:58;;;;;;;;;;;;;;;;;;4848355;29;20208;-85
2023/09/03 10:18:24;;;;;;;;;;;;;;;;;;4840259;29;20441;-86
2023/09/03 10:20:49;;;;;;;;;;;;;;;;;;4851720;29;19923;-84
2023/09/03 10:23:29;;;;;;;;;;;;;;;;;;4863485;29;20565;-85
2023/09/03 10:25:54;;;;;;;;;;;;;;;;;;4877718;29;19991;-86
2023/09/03 10:28:21;;;;;;;;;;;;;;;;;;4837091;29;19919;-86
2023/09/03 10:30:51;;;;;;;;;;;;;;;;;;4846848;29;19920;-86
2023/09/03 10:33:16;;;;;;;;;;;;;;;;;;4866656;29;20480;-86
2023/09/03 10:36:01;;;;;;;;;;;;;;;;;;4872322;29;19990;-86
2023/09/03 10:38:35;;;;;;;;;;;;;;;;;;4875271;29;19971;-86
2023/09/03 10:41:23;;;;;;;;;;;;;;;;;;4859608;29;20366;-86
2023/09/03 10:43:53;;;;;;;;;;;;;;;;;;4852912;29;19920;-87
2023/09/03 10:46:18;;;;;;;;;;;;;;;;;;4858859;29;19948;-87
2023/09/03 10:48:50;;;;;;;;;;;;;;;;;;4833718;29;19919;-86
2023/09/03 10:51:29;;;;;;;;;;;;;;;;;;4866835;29;19923;-86
2023/09/03 10:53:54;;;;;;;;;;;;;;;;;;4849886;29;19920;-85
2023/09/03 10:56:20;;;;;;;;;;;;;;;;;;4854142;29;20010;-84
2023/09/03 10:58:54;;;;;;;;;;;;;;;;;;4854987;29;20357;-85
2023/09/03 11:01:20;;;;;;;;;;;;;;;;;;4843849;29;19916;-86
2023/09/03 11:03:49;;;;;;;;;;;;;;;;;;4860982;29;19931;-86
2023/09/03 11:06:19;;;;;;;;;;;;;;;;;;4872898;29;19920;-86
2023/09/03 11:08:45;;;;;;;;;;;;;;;;;;4870160;29;19919;-87
2023/09/03 11:11:11;;;;;;;;;;;;;;;;;;4863804;29;19919;-86
2023/09/03 11:13:36;;;;;;;;;;;;;;;;;;4853278;29;20010;-85
2023/09/03 11:16:04;;;;;;;;;;;;;;;;;;4873191;29;19951;-86
2023/09/03 11:18:30;;;;;;;;;;;;;;;;;;4868640;29;20439;-85
2023/09/03 11:20:56;;;;;;;;;;;;;;;;;;4856142;29;19920;-86
2023/09/03 11:23:24;;;;;;;;;;;;;;;;;;4855675;29;20721;-86
2023/09/03 11:25:49;;;;;;;;;;;;;;;;;;4865511;29;19920;-84
2023/09/03 11:28:15;;;;;;;;;;;;;;;;;;4857257;29;19983;-84
2023/09/03 11:30:44;;;;;;;;;;;;;;;;;;4853835;29;19923;-86
2023/09/03 11:33:27;;;;;;;;;;;;;;;;;;4856668;29;19923;-84
2023/09/03 11:35:53;;;;;;;;;;;;;;;;;;4860507;29;19919;-84
2023/09/03 11:38:20;;;;;;;;;;;;;;;;;;4868022;29;20511;-85
2023/09/03 11:40:46;;;;;;;;;;;;;;;;;;4860481;29;19964;-86
2023/09/03 11:43:12;;;;;;;;;;;;;;;;;;4854508;29;19919;-85
2023/09/03 11:45:38;;;;;;;;;;;;;;;;;;4855612;29;20794;-84
2023/09/03 11:48:08;;;;;;;;;;;;;;;;;;4841143;29;19920;-86
2023/09/03 11:50:57;;;;;;;;;;;;;;;;;;4843939;29;20050;-84
2023/09/03 11:53:34;;;;;;;;;;;;;;;;;;4852963;29;19927;-83
2023/09/03 11:56:02;;;;;;;;;;;;;;;;;;4837263;29;20337;-85
2023/09/03 11:58:27;;;;;;;;;;;;;;;;;;4872763;29;20006;-83
2023/09/03 12:00:56;;;;;;;;;;;;;;;;;;4850981;29;20389;-85
2023/09/03 12:03:22;;;;;;;;;;;;;;;;;;4872420;29;20419;-84
2023/09/03 12:05:48;;;;;;;;;;;;;;;;;;4845813;29;20501;-83
2023/09/03 12:08:13;;;;;;;;;;;;;;;;;;4844737;29;19954;-84
2023/09/03 12:10:38;;;;;;;;;;;;;;;;;;4829337;29;20324;-80
2023/09/03 12:13:04;;;;;;;;;;;;;;;;;;4867515;29;19963;-84
2023/09/03 12:15:30;;;;;;;;;;;;;;;;;;4849773;29;19924;-80
2023/09/03 12:18:08;;;;;;;;;;;;;;;;;;4847081;29;19926;-79
2023/09/03 12:20:40;;;;;;;;;;;;;;;;;;4846185;29;19916;-80
2023/09/03 12:23:06;;;;;;;;;;;;;;;;;;4843538;29;20337;-79
2023/09/03 12:25:34;;;;;;;;;;;;;;;;;;4873092;29;19919;-80
2023/09/03 12:28:00;;;;;;;;;;;;;;;;;;4865157;29;20354;-80
2023/09/03 12:30:25;;;;;;;;;;;;;;;;;;4873867;29;19916;-80
2023/09/03 12:32:53;;;;;;;;;;;;;;;;;;4836970;29;20015;-81
2023/09/03 12:35:20;;;;;;;;;;;;;;;;;;4836616;29;20909;-80
2023/09/03 12:37:46;;;;;;;;;;;;;;;;;;4849763;29;19927;-80
2023/09/03 12:40:11;;;;;;;;;;;;;;;;;;4836144;29;19919;-80
2023/09/03 12:42:36;;;;;;;;;;;;;;;;;;4845423;29;19920;-80
2023/09/03 12:45:02;;;;;;;;;;;;;;;;;;4837568;29;19919;-80
2023/09/03 12:47:27;;;;;;;;;;;;;;;;;;4836786;29;19927;-81
2023/09/03 12:49:56;;;;;;;;;;;;;;;;;;4861602;29;19919;-81
2023/09/03 12:52:22;;;;;;;;;;;;;;;;;;4853236;29;19925;-81
2023/09/03 12:54:47;;;;;;;;;;;;;;;;;;4850431;29;20372;-81
2023/09/03 12:57:13;;;;;;;;;;;;;;;;;;4853053;29;20352;-80
2023/09/03 12:59:38;;;;;;;;;;;;;;;;;;4870244;29;19967;-80
2023/09/03 13:02:04;;;;;;;;;;;;;;;;;;4871020;29;20297;-80
2023/09/03 13:04:29;;;;;;;;;;;;;;;;;;4874016;29;19977;-80
2023/09/03 13:07:04;;;;;;;;;;;;;;;;;;5023105;27;19925;-79
2023/09/03 13:09:29;;;;;;;;;;;;;;;;;;5036893;28;19984;-80
2023/09/03 13:11:55;;;;;;;;;;;;;;;;;;5022173;28;19940;-78
2023/09/03 13:14:20;;;;;;;;;;;;;;;;;;4999269;28;20198;-80
2023/09/03 13:16:45;;;;;;;;;;;;;;;;;;5013737;28;20002;-80
2023/09/03 13:19:11;;;;;;;;;;;;;;;;;;5014911;28;19925;-81
2023/09/03 13:21:37;;;;;;;;;;;;;;;;;;5020388;28;20372;-82
2023/09/03 13:24:05;;;;;;;;;;;;;;;;;;5026997;28;19922;-80
2023/09/03 13:26:30;;;;;;;;;;;;;;;;;;5026381;28;20296;-81
2023/09/03 13:29:01;;;;;;;;;;;;;;;;;;5009823;28;19921;-79
2023/09/03 13:31:26;;;;;;;;;;;;;;;;;;5012546;28;20396;-81
2023/09/03 13:33:52;;;;;;;;;;;;;;;;;;5028101;28;20008;-81
2023/09/03 13:36:17;;;;;;;;;;;;;;;;;;5012695;28;19926;-83
2023/09/03 13:38:45;;;;;;;;;;;;;;;;;;5012341;28;19928;-81
2023/09/03 13:41:10;;;;;;;;;;;;;;;;;;5016158;28;20036;-82
2023/09/03 13:43:35;;;;;;;;;;;;;;;;;;4997391;28;20040;-82
2023/09/03 13:46:01;;;;;;;;;;;;;;;;;;5015923;28;20277;-82
2023/09/03 13:48:26;;;;;;;;;;;;;;;;;;5009523;28;19918;-82
2023/09/03 13:50:51;;;;;;;;;;;;;;;;;;5009917;28;19921;-82
2023/09/03 13:53:17;;;;;;;;;;;;;;;;;;5012747;28;20333;-83
2023/09/03 13:55:42;;;;;;;;;;;;;;;;;;5006167;28;19920;-80
2023/09/03 13:58:08;;;;;;;;;;;;;;;;;;5007182;28;19925;-79
2023/09/03 14:00:33;;;;;;;;;;;;;;;;;;5002005;28;19925;-80
2023/09/03 14:02:58;;;;;;;;;;;;;;;;;;5006147;28;22087;-82
2023/09/03 14:05:23;;;;;;;;;;;;;;;;;;5027089;28;20141;-81
2023/09/03 14:07:49;;;;;;;;;;;;;;;;;;5020358;28;19927;-81
2023/09/03 14:10:14;;;;;;;;;;;;;;;;;;5013455;28;20530;-80
2023/09/03 14:12:40;;;;;;;;;;;;;;;;;;5022063;28;19924;-81
2023/09/03 14:15:05;;;;;;;;;;;;;;;;;;5013697;28;19921;-82
2023/09/03 14:17:31;;;;;;;;;;;;;;;;;;5018436;28;19956;-80
2023/09/03 14:19:56;;;;;;;;;;;;;;;;;;4984330;28;19976;-81
2023/09/03 14:22:21;;;;;;;;;;;;;;;;;;4988818;28;19975;-81
2023/09/03 14:24:47;;;;;;;;;;;;;;;;;;5012702;28;19925;-82
2023/09/03 14:27:13;;;;;;;;;;;;;;;;;;4992883;28;20303;-82
2023/09/03 14:29:38;;;;;;;;;;;;;;;;;;4995758;28;20369;-81
2023/09/03 14:32:06;;;;;;;;;;;;;;;;;;5013782;28;20019;-82
2023/09/03 14:34:32;;;;;;;;;;;;;;;;;;4999336;28;19922;-82
2023/09/03 14:36:57;;;;;;;;;;;;;;;;;;5005899;28;20616;-82
2023/09/03 14:39:22;;;;;;;;;;;;;;;;;;4991401;28;20178;-81
2023/09/03 14:41:48;;;;;;;;;;;;;;;;;;5022147;28;19921;-81
2023/09/03 14:44:14;;;;;;;;;;;;;;;;;;5009299;28;19948;-81
2023/09/03 14:46:40;;;;;;;;;;;;;;;;;;5014185;28;19948;-82
2023/09/03 14:49:05;;;;;;;;;;;;;;;;;;5014335;28;19921;-80
2023/09/03 14:51:31;;;;;;;;;;;;;;;;;;5013992;28;20285;-82
2023/09/03 14:53:56;;;;;;;;;;;;;;;;;;5004158;28;19989;-82
2023/09/03 14:56:22;;;;;;;;;;;;;;;;;;5013660;28;19971;-82
2023/09/03 15:02:18;;;;;;;;;;;;;;;;;;4985458;28;19920;-84
2023/09/03 15:05:16;;;;;;;;;;;;;;;;;;4996783;28;20012;-83
2023/09/03 15:07:41;;;;;;;;;;;;;;;;;;5012181;28;20004;-83
2023/09/03 15:10:23;;;;;;;;;;;;;;;;;;4991492;28;20360;-84
2023/09/03 15:12:52;;;;;;;;;;;;;;;;;;4999693;28;19928;-82
2023/09/03 15:15:17;;;;;;;;;;;;;;;;;;5014477;28;20307;-84
2023/09/03 15:17:42;;;;;;;;;;;;;;;;;;5018709;28;19917;-84
2023/09/03 15:20:08;;;;;;;;;;;;;;;;;;5025073;28;19971;-83
2023/09/03 15:22:33;;;;;;;;;;;;;;;;;;5000425;28;19921;-83
2023/09/03 15:25:23;;;;;;;;;;;;;;;;;;5012198;28;20300;-84
2023/09/03 15:28:20;;;;;;;;;;;;;;;;;;;;;
2023/09/03 15:31:21;;;;;;;;;;;;;;;;;;5021535;28;20770;-84
2023/09/03 15:33:45;;;;;;;;;;;;;;;;;;5027180;28;20499;-84
2023/09/03 15:36:10;;;;;;;;;;;;;;;;;;5008853;28;20062;-84
2023/09/03 15:38:51;;;;;;;;;;;;;;;;;;5003235;28;19921;-83
2023/09/03 15:41:31;;;;;;;;;;;;;;;;;;5010836;28;19921;-84
2023/09/03 15:44:00;;;;;;;;;;;;;;;;;;5020088;28;19963;-81
2023/09/03 15:46:26;;;;;;;;;;;;;;;;;;5030003;28;19999;-83
2023/09/03 15:48:51;;;;;;;;;;;;;;;;;;5029895;28;20016;-79
2023/09/03 15:51:17;;;;;;;;;;;;;;;;;;5040912;28;20288;-82
2023/09/03 15:53:43;;;;;;;;;;;;;;;;;;5010218;28;19917;-81
2023/09/03 15:56:08;;;;;;;;;;;;;;;;;;5030819;28;19917;-81
2023/09/03 15:58:33;;;;;;;;;;;;;;;;;;5025441;28;19936;-80
2023/09/03 16:01:04;;;;;;;;;;;;;;;;;;5017919;28;20076;-81
2023/09/03 16:03:29;;;;;;;;;;;;;;;;;;5015903;28;19917;-81
2023/09/03 16:05:55;;;;;;;;;;;;;;;;;;5032584;28;19952;-82
2023/09/03 16:08:20;;;;;;;;;;;;;;;;;;5018639;28;19923;-81
2023/09/03 16:10:46;;;;;;;;;;;;;;;;;;4997672;28;19920;-82
2023/09/03 16:13:11;;;;;;;;;;;;;;;;;;5001194;28;20841;-82
2023/09/03 16:15:40;;;;;;;;;;;;;;;;;;5019287;28;20012;-82
2023/09/03 16:18:05;;;;;;;;;;;;;;;;;;5031888;28;19968;-81
2023/09/03 16:20:30;;;;;;;;;;;;;;;;;;5017881;28;19956;-81
2023/09/03 16:22:56;;;;;;;;;;;;;;;;;;5004413;28;19917;-82
2023/09/03 16:25:23;;;;;;;;;;;;;;;;;;5041428;28;19940;-82
2023/09/03 16:27:49;;;;;;;;;;;;;;;;;;5040623;28;20919;-83
2023/09/03 16:30:15;;;;;;;;;;;;;;;;;;5024225;28;19917;-82
2023/09/03 16:32:42;;;;;;;;;;;;;;;;;;5023807;28;19972;-82
2023/09/03 16:35:07;;;;;;;;;;;;;;;;;;5032686;28;19917;-82
2023/09/03 16:37:32;;;;;;;;;;;;;;;;;;5014030;28;19960;-81
2023/09/03 16:39:58;;;;;;;;;;;;;;;;;;5017418;28;19921;-81
2023/09/03 16:42:23;;;;;;;;;;;;;;;;;;5006154;28;20056;-81
2023/09/03 16:44:58;;;;;;;;;;;;;;;;;;5009112;28;20760;-81
2023/09/03 16:47:24;;;;;;;;;;;;;;;;;;5024225;28;19932;-81
2023/09/03 16:49:52;;;;;;;;;;;;;;;;;;5018661;28;19992;-82
2023/09/03 16:52:17;;;;;;;;;;;;;;;;;;5016670;28;19991;-82
2023/09/03 16:54:42;;;;;;;;;;;;;;;;;;5014964;28;19921;-84